sensor_id;sensor_type;location;lat;lon;timestamp;P1;durP1;ratioP1;P2;durP2;ratioP2
32319;SDS011;19080;51.750;5.888;2023-04-24T00:01:02;9.88;;;8.88;;
32319;SDS011;19080;51.750;5.888;2023-04-24T00:03:29;9.93;;;8.93;;
32319;SDS011;19080;51.750;5.888;2023-04-24T00:05:56;9.85;;;8.88;;
32319;SDS011;19080;51.750;5.888;2023-04-24T00:08:23;9.82;;;8.82;;
32319;SDS011;19080;51.750;5.888;2023-04-24T00:10:50;8.90;;;8.00;;
32319;SDS011;19080;51.750;5.888;2023-04-24T00:13:18;8.32;;;7.53;;
32319;SDS011;19080;51.750;5.888;2023-04-24T00:15:46;8.15;;;7.35;;
32319;SDS011;19080;51.750;5.888;2023-04-24T00:18:13;7.97;;;7.18;;
32319;SDS011;19080;51.750;5.888;2023-04-24T00:20:40;8.73;;;7.68;;
32319;SDS011;19080;51.750;5.888;2023-04-24T00:23:07;7.25;;;6.63;;
32319;SDS011;19080;51.750;5.888;2023-04-24T00:25:33;8.30;;;7.50;;
32319;SDS011;19080;51.750;5.888;2023-04-24T00:28:00;8.40;;;7.60;;
32319;SDS011;19080;51.750;5.888;2023-04-24T00:30:27;7.95;;;6.90;;
32319;SDS011;19080;51.750;5.888;2023-04-24T00:32:54;8.07;;;7.28;;
32319;SDS011;19080;51.750;5.888;2023-04-24T00:35:22;7.10;;;6.40;;
32319;SDS011;19080;51.750;5.888;2023-04-24T00:37:51;7.20;;;6.50;;
32319;SDS011;19080;51.750;5.888;2023-04-24T00:40:17;7.80;;;7.00;;
32319;SDS011;19080;51.750;5.888;2023-04-24T00:42:44;9.05;;;7.80;;
32319;SDS011;19080;51.750;5.888;2023-04-24T00:45:11;8.98;;;7.22;;
32319;SDS011;19080;51.750;5.888;2023-04-24T00:47:38;9.05;;;8.15;;
32319;SDS011;19080;51.750;5.888;2023-04-24T00:50:05;8.48;;;7.60;;
32319;SDS011;19080;51.750;5.888;2023-04-24T00:52:33;10.90;;;8.80;;
32319;SDS011;19080;51.750;5.888;2023-04-24T00:55:00;9.57;;;8.65;;
32319;SDS011;19080;51.750;5.888;2023-04-24T00:57:27;10.95;;;9.43;;
32319;SDS011;19080;51.750;5.888;2023-04-24T00:59:54;9.85;;;8.75;;
32319;SDS011;19080;51.750;5.888;2023-04-24T01:02:21;11.40;;;9.98;;
32319;SDS011;19080;51.750;5.888;2023-04-24T01:04:50;11.27;;;9.05;;
32319;SDS011;19080;51.750;5.888;2023-04-24T01:07:19;9.35;;;8.43;;
32319;SDS011;19080;51.750;5.888;2023-04-24T01:09:47;14.50;;;10.32;;
32319;SDS011;19080;51.750;5.888;2023-04-24T01:12:15;14.77;;;10.35;;
32319;SDS011;19080;51.750;5.888;2023-04-24T01:14:44;14.30;;;11.23;;
32319;SDS011;19080;51.750;5.888;2023-04-24T01:17:11;15.75;;;11.93;;
32319;SDS011;19080;51.750;5.888;2023-04-24T01:19:38;14.88;;;12.10;;
32319;SDS011;19080;51.750;5.888;2023-04-24T01:22:09;17.52;;;12.52;;
32319;SDS011;19080;51.750;5.888;2023-04-24T01:24:41;17.88;;;12.52;;
32319;SDS011;19080;51.750;5.888;2023-04-24T01:27:11;20.90;;;12.80;;
32319;SDS011;19080;51.750;5.888;2023-04-24T01:29:38;22.30;;;14.68;;
32319;SDS011;19080;51.750;5.888;2023-04-24T01:32:06;17.98;;;13.27;;
32319;SDS011;19080;51.750;5.888;2023-04-24T01:34:33;18.88;;;14.70;;
32319;SDS011;19080;51.750;5.888;2023-04-24T01:37:00;20.38;;;15.30;;
32319;SDS011;19080;51.750;5.888;2023-04-24T01:39:27;18.13;;;13.32;;
32319;SDS011;19080;51.750;5.888;2023-04-24T01:41:55;21.35;;;16.00;;
32319;SDS011;19080;51.750;5.888;2023-04-24T01:44:23;18.60;;;14.07;;
32319;SDS011;19080;51.750;5.888;2023-04-24T01:46:50;22.80;;;15.63;;
32319;SDS011;19080;51.750;5.888;2023-04-24T01:49:17;16.48;;;14.40;;
32319;SDS011;19080;51.750;5.888;2023-04-24T01:51:44;22.08;;;16.20;;
32319;SDS011;19080;51.750;5.888;2023-04-24T01:54:11;24.40;;;16.55;;
32319;SDS011;19080;51.750;5.888;2023-04-24T01:56:42;24.33;;;16.33;;
32319;SDS011;19080;51.750;5.888;2023-04-24T01:59:12;25.33;;;16.60;;
32319;SDS011;19080;51.750;5.888;2023-04-24T02:01:39;23.80;;;17.00;;
32319;SDS011;19080;51.750;5.888;2023-04-24T02:04:06;21.13;;;16.15;;
32319;SDS011;19080;51.750;5.888;2023-04-24T02:06:34;18.10;;;15.85;;
32319;SDS011;19080;51.750;5.888;2023-04-24T02:09:02;21.52;;;17.00;;
32319;SDS011;19080;51.750;5.888;2023-04-24T02:11:29;20.52;;;16.60;;
32319;SDS011;19080;51.750;5.888;2023-04-24T02:13:57;20.52;;;16.55;;
32319;SDS011;19080;51.750;5.888;2023-04-24T02:16:25;18.52;;;16.38;;
32319;SDS011;19080;51.750;5.888;2023-04-24T02:18:52;20.90;;;16.48;;
32319;SDS011;19080;51.750;5.888;2023-04-24T02:21:19;22.65;;;17.52;;
32319;SDS011;19080;51.750;5.888;2023-04-24T02:23:45;22.27;;;17.35;;
32319;SDS011;19080;51.750;5.888;2023-04-24T02:26:12;24.88;;;18.73;;
32319;SDS011;19080;51.750;5.888;2023-04-24T02:28:39;22.33;;;17.90;;
32319;SDS011;19080;51.750;5.888;2023-04-24T02:31:06;26.38;;;19.67;;
32319;SDS011;19080;51.750;5.888;2023-04-24T02:33:32;25.38;;;21.45;;
32319;SDS011;19080;51.750;5.888;2023-04-24T02:36:01;26.65;;;21.88;;
32319;SDS011;19080;51.750;5.888;2023-04-24T02:38:28;29.02;;;22.30;;
32319;SDS011;19080;51.750;5.888;2023-04-24T02:40:55;29.25;;;24.00;;
32319;SDS011;19080;51.750;5.888;2023-04-24T02:43:22;34.47;;;25.35;;
32319;SDS011;19080;51.750;5.888;2023-04-24T02:45:49;30.48;;;23.33;;
32319;SDS011;19080;51.750;5.888;2023-04-24T02:48:16;31.00;;;23.95;;
32319;SDS011;19080;51.750;5.888;2023-04-24T02:50:43;29.08;;;25.77;;
32319;SDS011;19080;51.750;5.888;2023-04-24T02:53:10;32.17;;;25.35;;
32319;SDS011;19080;51.750;5.888;2023-04-24T02:55:36;31.80;;;24.85;;
32319;SDS011;19080;51.750;5.888;2023-04-24T02:58:03;32.17;;;25.27;;
32319;SDS011;19080;51.750;5.888;2023-04-24T03:00:30;32.83;;;24.33;;
32319;SDS011;19080;51.750;5.888;2023-04-24T03:02:56;32.15;;;26.70;;
32319;SDS011;19080;51.750;5.888;2023-04-24T03:05:23;38.67;;;26.17;;
32319;SDS011;19080;51.750;5.888;2023-04-24T03:07:50;29.83;;;25.33;;
32319;SDS011;19080;51.750;5.888;2023-04-24T03:10:20;34.33;;;26.02;;
32319;SDS011;19080;51.750;5.888;2023-04-24T03:12:48;29.50;;;24.50;;
32319;SDS011;19080;51.750;5.888;2023-04-24T03:15:17;34.67;;;26.33;;
32319;SDS011;19080;51.750;5.888;2023-04-24T03:17:44;32.38;;;24.52;;
32319;SDS011;19080;51.750;5.888;2023-04-24T03:20:11;32.53;;;23.98;;
32319;SDS011;19080;51.750;5.888;2023-04-24T03:22:38;34.58;;;24.88;;
32319;SDS011;19080;51.750;5.888;2023-04-24T03:25:07;29.90;;;24.70;;
32319;SDS011;19080;51.750;5.888;2023-04-24T03:27:35;31.25;;;25.23;;
32319;SDS011;19080;51.750;5.888;2023-04-24T03:30:31;29.00;;;24.90;;
32319;SDS011;19080;51.750;5.888;2023-04-24T03:32:59;32.92;;;24.95;;
32319;SDS011;19080;51.750;5.888;2023-04-24T03:35:29;26.60;;;22.23;;
32319;SDS011;19080;51.750;5.888;2023-04-24T03:38:00;29.70;;;25.73;;
32319;SDS011;19080;51.750;5.888;2023-04-24T03:40:45;29.55;;;24.58;;
32319;SDS011;19080;51.750;5.888;2023-04-24T03:43:44;31.27;;;24.23;;
32319;SDS011;19080;51.750;5.888;2023-04-24T03:46:11;29.90;;;22.17;;
32319;SDS011;19080;51.750;5.888;2023-04-24T03:48:43;27.85;;;22.50;;
32319;SDS011;19080;51.750;5.888;2023-04-24T03:51:10;29.25;;;22.80;;
32319;SDS011;19080;51.750;5.888;2023-04-24T03:53:41;25.17;;;21.92;;
32319;SDS011;19080;51.750;5.888;2023-04-24T03:56:09;29.60;;;21.95;;
32319;SDS011;19080;51.750;5.888;2023-04-24T03:58:36;25.90;;;21.25;;
32319;SDS011;19080;51.750;5.888;2023-04-24T04:01:04;25.92;;;22.15;;
32319;SDS011;19080;51.750;5.888;2023-04-24T04:03:53;24.92;;;20.20;;
32319;SDS011;19080;51.750;5.888;2023-04-24T04:06:27;22.17;;;19.20;;
32319;SDS011;19080;51.750;5.888;2023-04-24T04:08:56;30.27;;;23.25;;
32319;SDS011;19080;51.750;5.888;2023-04-24T04:11:23;25.38;;;20.92;;
32319;SDS011;19080;51.750;5.888;2023-04-24T04:13:50;29.85;;;21.90;;
32319;SDS011;19080;51.750;5.888;2023-04-24T04:16:19;26.15;;;21.77;;
32319;SDS011;19080;51.750;5.888;2023-04-24T04:18:49;24.70;;;21.17;;
32319;SDS011;19080;51.750;5.888;2023-04-24T04:21:16;25.38;;;21.40;;
32319;SDS011;19080;51.750;5.888;2023-04-24T04:23:43;25.42;;;20.73;;
32319;SDS011;19080;51.750;5.888;2023-04-24T04:26:18;24.23;;;20.10;;
32319;SDS011;19080;51.750;5.888;2023-04-24T04:29:08;25.52;;;20.23;;
32319;SDS011;19080;51.750;5.888;2023-04-24T04:31:40;24.60;;;19.73;;
32319;SDS011;19080;51.750;5.888;2023-04-24T04:34:10;22.75;;;17.95;;
32319;SDS011;19080;51.750;5.888;2023-04-24T04:36:40;22.48;;;17.02;;
32319;SDS011;19080;51.750;5.888;2023-04-24T04:39:22;21.20;;;17.92;;
32319;SDS011;19080;51.750;5.888;2023-04-24T04:41:58;21.02;;;17.33;;
32319;SDS011;19080;51.750;5.888;2023-04-24T04:44:33;22.40;;;17.15;;
32319;SDS011;19080;51.750;5.888;2023-04-24T04:47:04;31.33;;;18.92;;
32319;SDS011;19080;51.750;5.888;2023-04-24T04:49:37;23.17;;;17.65;;
32319;SDS011;19080;51.750;5.888;2023-04-24T04:52:09;24.42;;;15.18;;
32319;SDS011;19080;51.750;5.888;2023-04-24T04:54:36;19.83;;;15.23;;
32319;SDS011;19080;51.750;5.888;2023-04-24T04:57:03;21.23;;;16.77;;
32319;SDS011;19080;51.750;5.888;2023-04-24T04:59:34;22.02;;;15.02;;
32319;SDS011;19080;51.750;5.888;2023-04-24T05:02:05;21.92;;;15.90;;
32319;SDS011;19080;51.750;5.888;2023-04-24T05:04:32;19.83;;;16.42;;
32319;SDS011;19080;51.750;5.888;2023-04-24T05:06:59;22.38;;;16.20;;
32319;SDS011;19080;51.750;5.888;2023-04-24T05:09:29;17.85;;;15.43;;
32319;SDS011;19080;51.750;5.888;2023-04-24T05:12:01;18.57;;;14.43;;
32319;SDS011;19080;51.750;5.888;2023-04-24T05:14:32;15.23;;;11.95;;
32319;SDS011;19080;51.750;5.888;2023-04-24T05:16:59;20.10;;;15.98;;
32319;SDS011;19080;51.750;5.888;2023-04-24T05:19:26;14.80;;;13.20;;
32319;SDS011;19080;51.750;5.888;2023-04-24T05:21:53;17.98;;;14.45;;
32319;SDS011;19080;51.750;5.888;2023-04-24T05:24:20;15.20;;;13.40;;
32319;SDS011;19080;51.750;5.888;2023-04-24T05:27:25;14.85;;;13.18;;
32319;SDS011;19080;51.750;5.888;2023-04-24T05:29:51;17.23;;;14.13;;
32319;SDS011;19080;51.750;5.888;2023-04-24T05:32:18;16.13;;;14.25;;
32319;SDS011;19080;51.750;5.888;2023-04-24T05:34:45;15.20;;;13.70;;
32319;SDS011;19080;51.750;5.888;2023-04-24T05:37:13;16.65;;;13.10;;
32319;SDS011;19080;51.750;5.888;2023-04-24T05:39:41;15.75;;;14.05;;
32319;SDS011;19080;51.750;5.888;2023-04-24T05:42:08;14.70;;;13.23;;
32319;SDS011;19080;51.750;5.888;2023-04-24T05:44:34;14.20;;;12.57;;
32319;SDS011;19080;51.750;5.888;2023-04-24T05:47:01;14.75;;;13.07;;
32319;SDS011;19080;51.750;5.888;2023-04-24T05:49:28;14.68;;;13.18;;
32319;SDS011;19080;51.750;5.888;2023-04-24T05:51:56;13.02;;;10.60;;
32319;SDS011;19080;51.750;5.888;2023-04-24T05:54:23;11.10;;;10.00;;
32319;SDS011;19080;51.750;5.888;2023-04-24T05:56:51;11.15;;;10.05;;
32319;SDS011;19080;51.750;5.888;2023-04-24T05:59:28;10.85;;;8.63;;
32319;SDS011;19080;51.750;5.888;2023-04-24T06:01:56;8.00;;;6.57;;
32319;SDS011;19080;51.750;5.888;2023-04-24T06:04:23;5.65;;;5.00;;
32319;SDS011;19080;51.750;5.888;2023-04-24T06:06:51;6.57;;;5.97;;
32319;SDS011;19080;51.750;5.888;2023-04-24T06:09:22;7.90;;;5.70;;
32319;SDS011;19080;51.750;5.888;2023-04-24T06:11:49;7.32;;;6.63;;
32319;SDS011;19080;51.750;5.888;2023-04-24T06:14:16;10.38;;;8.20;;
32319;SDS011;19080;51.750;5.888;2023-04-24T06:17:01;8.10;;;7.30;;
32319;SDS011;19080;51.750;5.888;2023-04-24T06:19:34;9.63;;;7.82;;
32319;SDS011;19080;51.750;5.888;2023-04-24T06:22:01;7.78;;;6.85;;
32319;SDS011;19080;51.750;5.888;2023-04-24T06:24:28;8.68;;;7.60;;
32319;SDS011;19080;51.750;5.888;2023-04-24T06:26:57;7.10;;;6.18;;
32319;SDS011;19080;51.750;5.888;2023-04-24T06:29:25;6.25;;;5.60;;
32319;SDS011;19080;51.750;5.888;2023-04-24T06:31:51;6.32;;;4.72;;
32319;SDS011;19080;51.750;5.888;2023-04-24T06:34:18;4.72;;;4.20;;
32319;SDS011;19080;51.750;5.888;2023-04-24T06:36:46;6.00;;;3.42;;
32319;SDS011;19080;51.750;5.888;2023-04-24T06:39:13;2.92;;;2.63;;
32319;SDS011;19080;51.750;5.888;2023-04-24T06:41:40;3.00;;;2.70;;
32319;SDS011;19080;51.750;5.888;2023-04-24T06:44:09;2.60;;;2.40;;
32319;SDS011;19080;51.750;5.888;2023-04-24T06:46:36;4.32;;;1.92;;
32319;SDS011;19080;51.750;5.888;2023-04-24T06:49:06;2.17;;;1.98;;
32319;SDS011;19080;51.750;5.888;2023-04-24T06:51:33;3.00;;;2.58;;
32319;SDS011;19080;51.750;5.888;2023-04-24T06:53:59;3.53;;;2.67;;
32319;SDS011;19080;51.750;5.888;2023-04-24T06:56:26;3.22;;;2.30;;
32319;SDS011;19080;51.750;5.888;2023-04-24T06:58:55;3.08;;;2.35;;
32319;SDS011;19080;51.750;5.888;2023-04-24T07:01:21;2.55;;;2.30;;
32319;SDS011;19080;51.750;5.888;2023-04-24T07:03:48;2.08;;;1.77;;
32319;SDS011;19080;51.750;5.888;2023-04-24T07:06:15;1.80;;;1.50;;
32319;SDS011;19080;51.750;5.888;2023-04-24T07:08:42;2.38;;;1.27;;
32319;SDS011;19080;51.750;5.888;2023-04-24T07:11:09;2.00;;;1.20;;
32319;SDS011;19080;51.750;5.888;2023-04-24T07:13:36;1.67;;;1.10;;
32319;SDS011;19080;51.750;5.888;2023-04-24T07:16:08;1.27;;;0.85;;
32319;SDS011;19080;51.750;5.888;2023-04-24T07:18:35;1.08;;;0.80;;
32319;SDS011;19080;51.750;5.888;2023-04-24T07:21:02;1.20;;;1.10;;
32319;SDS011;19080;51.750;5.888;2023-04-24T07:23:29;1.98;;;1.75;;
32319;SDS011;19080;51.750;5.888;2023-04-24T07:25:57;3.20;;;2.22;;
32319;SDS011;19080;51.750;5.888;2023-04-24T07:28:23;5.03;;;2.53;;
32319;SDS011;19080;51.750;5.888;2023-04-24T07:30:50;2.40;;;2.20;;
32319;SDS011;19080;51.750;5.888;2023-04-24T07:33:20;2.60;;;2.10;;
32319;SDS011;19080;51.750;5.888;2023-04-24T07:35:46;2.20;;;1.70;;
32319;SDS011;19080;51.750;5.888;2023-04-24T07:38:15;2.92;;;1.30;;
32319;SDS011;19080;51.750;5.888;2023-04-24T07:40:42;1.45;;;1.35;;
32319;SDS011;19080;51.750;5.888;2023-04-24T07:43:09;2.10;;;1.20;;
32319;SDS011;19080;51.750;5.888;2023-04-24T07:45:36;1.90;;;1.65;;
32319;SDS011;19080;51.750;5.888;2023-04-24T07:48:04;7.65;;;4.82;;
32319;SDS011;19080;51.750;5.888;2023-04-24T07:50:31;5.63;;;4.82;;
32319;SDS011;19080;51.750;5.888;2023-04-24T07:52:57;10.20;;;6.80;;
32319;SDS011;19080;51.750;5.888;2023-04-24T07:55:25;8.32;;;6.80;;
32319;SDS011;19080;51.750;5.888;2023-04-24T07:57:53;10.27;;;8.82;;
32319;SDS011;19080;51.750;5.888;2023-04-24T08:00:21;12.63;;;10.02;;
32319;SDS011;19080;51.750;5.888;2023-04-24T08:02:48;13.98;;;10.43;;
32319;SDS011;19080;51.750;5.888;2023-04-24T08:05:14;19.45;;;11.82;;
32319;SDS011;19080;51.750;5.888;2023-04-24T08:07:42;15.25;;;11.77;;
32319;SDS011;19080;51.750;5.888;2023-04-24T08:10:12;25.65;;;11.90;;
32319;SDS011;19080;51.750;5.888;2023-04-24T08:12:39;20.10;;;12.57;;
32319;SDS011;19080;51.750;5.888;2023-04-24T08:15:06;16.85;;;12.25;;
32319;SDS011;19080;51.750;5.888;2023-04-24T08:17:34;16.90;;;12.05;;
32319;SDS011;19080;51.750;5.888;2023-04-24T08:20:02;18.90;;;12.98;;
32319;SDS011;19080;51.750;5.888;2023-04-24T08:22:31;19.85;;;13.00;;
32319;SDS011;19080;51.750;5.888;2023-04-24T08:24:59;18.02;;;13.32;;
32319;SDS011;19080;51.750;5.888;2023-04-24T08:27:26;25.88;;;12.77;;
32319;SDS011;19080;51.750;5.888;2023-04-24T08:29:53;19.90;;;12.10;;
32319;SDS011;19080;51.750;5.888;2023-04-24T08:32:20;18.08;;;11.32;;
32319;SDS011;19080;51.750;5.888;2023-04-24T08:34:47;17.30;;;10.90;;
32319;SDS011;19080;51.750;5.888;2023-04-24T08:37:16;16.08;;;11.15;;
32319;SDS011;19080;51.750;5.888;2023-04-24T08:39:42;14.63;;;10.35;;
32319;SDS011;19080;51.750;5.888;2023-04-24T08:42:09;21.98;;;10.73;;
32319;SDS011;19080;51.750;5.888;2023-04-24T08:44:37;16.85;;;11.02;;
32319;SDS011;19080;51.750;5.888;2023-04-24T08:47:04;25.20;;;11.82;;
32319;SDS011;19080;51.750;5.888;2023-04-24T08:49:32;18.55;;;10.55;;
32319;SDS011;19080;51.750;5.888;2023-04-24T08:51:59;22.23;;;10.05;;
32319;SDS011;19080;51.750;5.888;2023-04-24T08:54:28;25.85;;;10.40;;
32319;SDS011;19080;51.750;5.888;2023-04-24T08:56:59;21.75;;;9.95;;
32319;SDS011;19080;51.750;5.888;2023-04-24T08:59:30;17.20;;;10.63;;
32319;SDS011;19080;51.750;5.888;2023-04-24T09:01:57;27.13;;;10.13;;
32319;SDS011;19080;51.750;5.888;2023-04-24T09:04:24;28.13;;;11.05;;
32319;SDS011;19080;51.750;5.888;2023-04-24T09:06:53;18.38;;;6.95;;
32319;SDS011;19080;51.750;5.888;2023-04-24T09:09:22;23.40;;;7.38;;
32319;SDS011;19080;51.750;5.888;2023-04-24T09:11:52;25.92;;;8.70;;
32319;SDS011;19080;51.750;5.888;2023-04-24T09:14:21;20.88;;;7.53;;
32319;SDS011;19080;51.750;5.888;2023-04-24T09:16:50;20.42;;;6.07;;
32319;SDS011;19080;51.750;5.888;2023-04-24T09:19:17;22.17;;;6.97;;
32319;SDS011;19080;51.750;5.888;2023-04-24T09:21:47;23.98;;;6.40;;
32319;SDS011;19080;51.750;5.888;2023-04-24T09:24:15;19.05;;;5.90;;
32319;SDS011;19080;51.750;5.888;2023-04-24T09:26:44;23.17;;;5.30;;
32319;SDS011;19080;51.750;5.888;2023-04-24T09:29:15;14.13;;;5.03;;
32319;SDS011;19080;51.750;5.888;2023-04-24T09:31:43;17.73;;;4.87;;
32319;SDS011;19080;51.750;5.888;2023-04-24T09:34:11;19.73;;;5.43;;
32319;SDS011;19080;51.750;5.888;2023-04-24T09:36:39;15.07;;;4.20;;
32319;SDS011;19080;51.750;5.888;2023-04-24T09:39:08;14.77;;;4.45;;
32319;SDS011;19080;51.750;5.888;2023-04-24T09:41:49;13.13;;;3.83;;
32319;SDS011;19080;51.750;5.888;2023-04-24T09:44:27;12.32;;;3.55;;
32319;SDS011;19080;51.750;5.888;2023-04-24T09:49:23;14.32;;;3.83;;
32319;SDS011;19080;51.750;5.888;2023-04-24T09:51:51;12.23;;;3.38;;
32319;SDS011;19080;51.750;5.888;2023-04-24T09:54:21;10.25;;;3.33;;
32319;SDS011;19080;51.750;5.888;2023-04-24T09:56:49;11.48;;;2.80;;
32319;SDS011;19080;51.750;5.888;2023-04-24T09:59:17;10.43;;;3.38;;
32319;SDS011;19080;51.750;5.888;2023-04-24T10:01:45;11.98;;;3.05;;
32319;SDS011;19080;51.750;5.888;2023-04-24T10:04:18;16.50;;;3.17;;
32319;SDS011;19080;51.750;5.888;2023-04-24T10:06:47;17.23;;;3.30;;
32319;SDS011;19080;51.750;5.888;2023-04-24T10:09:19;10.65;;;3.45;;
32319;SDS011;19080;51.750;5.888;2023-04-24T10:11:48;12.05;;;3.17;;
32319;SDS011;19080;51.750;5.888;2023-04-24T10:14:17;10.82;;;3.42;;
32319;SDS011;19080;51.750;5.888;2023-04-24T10:16:47;8.30;;;2.78;;
32319;SDS011;19080;51.750;5.888;2023-04-24T10:19:14;7.72;;;3.50;;
32319;SDS011;19080;51.750;5.888;2023-04-24T10:21:42;14.73;;;3.22;;
32319;SDS011;19080;51.750;5.888;2023-04-24T10:24:16;9.75;;;2.78;;
32319;SDS011;19080;51.750;5.888;2023-04-24T10:26:44;9.90;;;3.17;;
32319;SDS011;19080;51.750;5.888;2023-04-24T10:29:12;11.35;;;3.30;;
32319;SDS011;19080;51.750;5.888;2023-04-24T10:31:42;9.93;;;2.47;;
32319;SDS011;19080;51.750;5.888;2023-04-24T10:34:12;9.10;;;2.28;;
32319;SDS011;19080;51.750;5.888;2023-04-24T10:36:41;8.82;;;2.75;;
32319;SDS011;19080;51.750;5.888;2023-04-24T10:39:12;6.45;;;2.25;;
32319;SDS011;19080;51.750;5.888;2023-04-24T10:41:41;7.05;;;2.03;;
32319;SDS011;19080;51.750;5.888;2023-04-24T10:44:12;10.27;;;2.83;;
32319;SDS011;19080;51.750;5.888;2023-04-24T10:46:45;6.97;;;2.45;;
32319;SDS011;19080;51.750;5.888;2023-04-24T10:49:14;7.90;;;2.20;;
32319;SDS011;19080;51.750;5.888;2023-04-24T10:51:50;7.53;;;2.38;;
32319;SDS011;19080;51.750;5.888;2023-04-24T10:54:23;5.95;;;2.20;;
32319;SDS011;19080;51.750;5.888;2023-04-24T10:56:51;9.17;;;2.30;;
32319;SDS011;19080;51.750;5.888;2023-04-24T10:59:25;6.55;;;1.98;;
32319;SDS011;19080;51.750;5.888;2023-04-24T11:01:54;8.05;;;2.47;;
32319;SDS011;19080;51.750;5.888;2023-04-24T11:04:30;6.13;;;2.25;;
32319;SDS011;19080;51.750;5.888;2023-04-24T11:06:58;4.90;;;2.40;;
32319;SDS011;19080;51.750;5.888;2023-04-24T11:09:28;5.60;;;2.13;;
32319;SDS011;19080;51.750;5.888;2023-04-24T11:12:04;4.18;;;1.58;;
32319;SDS011;19080;51.750;5.888;2023-04-24T11:20:06;5.22;;;1.45;;
32319;SDS011;19080;51.750;5.888;2023-04-24T11:22:53;5.50;;;1.50;;
32319;SDS011;19080;51.750;5.888;2023-04-24T11:25:22;6.13;;;1.60;;
32319;SDS011;19080;51.750;5.888;2023-04-24T11:27:49;6.32;;;1.23;;
32319;SDS011;19080;51.750;5.888;2023-04-24T11:30:17;5.82;;;1.48;;
32319;SDS011;19080;51.750;5.888;2023-04-24T11:32:50;7.95;;;1.73;;
32319;SDS011;19080;51.750;5.888;2023-04-24T11:35:18;7.13;;;1.50;;
32319;SDS011;19080;51.750;5.888;2023-04-24T11:37:49;2.80;;;1.30;;
32319;SDS011;19080;51.750;5.888;2023-04-24T11:40:21;4.82;;;1.55;;
32319;SDS011;19080;51.750;5.888;2023-04-24T11:42:52;5.75;;;2.03;;
32319;SDS011;19080;51.750;5.888;2023-04-24T11:45:22;7.18;;;1.55;;
32319;SDS011;19080;51.750;5.888;2023-04-24T11:47:51;7.78;;;1.83;;
32319;SDS011;19080;51.750;5.888;2023-04-24T11:50:18;10.27;;;2.05;;
32319;SDS011;19080;51.750;5.888;2023-04-24T11:52:48;5.47;;;1.80;;
32319;SDS011;19080;51.750;5.888;2023-04-24T11:57:43;4.28;;;1.73;;
32319;SDS011;19080;51.750;5.888;2023-04-24T12:00:24;4.28;;;1.60;;
32319;SDS011;19080;51.750;5.888;2023-04-24T12:03:03;5.93;;;1.85;;
32319;SDS011;19080;51.750;5.888;2023-04-24T12:05:33;6.65;;;2.08;;
32319;SDS011;19080;51.750;5.888;2023-04-24T12:08:01;3.22;;;1.60;;
32319;SDS011;19080;51.750;5.888;2023-04-24T12:10:28;3.95;;;1.48;;
32319;SDS011;19080;51.750;5.888;2023-04-24T12:12:58;7.03;;;1.48;;
32319;SDS011;19080;51.750;5.888;2023-04-24T12:15:26;7.00;;;1.48;;
32319;SDS011;19080;51.750;5.888;2023-04-24T12:17:54;6.15;;;1.40;;
32319;SDS011;19080;51.750;5.888;2023-04-24T12:20:26;8.10;;;1.80;;
32319;SDS011;19080;51.750;5.888;2023-04-24T12:22:55;6.65;;;1.20;;
32319;SDS011;19080;51.750;5.888;2023-04-24T12:25:27;5.60;;;1.55;;
32319;SDS011;19080;51.750;5.888;2023-04-24T12:30:32;6.55;;;1.83;;
32319;SDS011;19080;51.750;5.888;2023-04-24T12:33:06;4.28;;;1.52;;
32319;SDS011;19080;51.750;5.888;2023-04-24T12:35:33;6.55;;;1.63;;
32319;SDS011;19080;51.750;5.888;2023-04-24T12:38:10;3.78;;;1.25;;
32319;SDS011;19080;51.750;5.888;2023-04-24T12:40:41;8.50;;;1.80;;
32319;SDS011;19080;51.750;5.888;2023-04-24T12:43:18;5.88;;;1.48;;
32319;SDS011;19080;51.750;5.888;2023-04-24T12:45:47;6.70;;;1.70;;
32319;SDS011;19080;51.750;5.888;2023-04-24T12:48:14;4.90;;;1.60;;
32319;SDS011;19080;51.750;5.888;2023-04-24T12:50:41;7.82;;;1.58;;
32319;SDS011;19080;51.750;5.888;2023-04-24T12:53:11;5.40;;;1.73;;
32319;SDS011;19080;51.750;5.888;2023-04-24T12:55:38;3.80;;;1.40;;
32319;SDS011;19080;51.750;5.888;2023-04-24T12:58:05;7.75;;;1.70;;
32319;SDS011;19080;51.750;5.888;2023-04-24T13:00:32;5.40;;;1.70;;
32319;SDS011;19080;51.750;5.888;2023-04-24T13:03:00;5.75;;;1.92;;
32319;SDS011;19080;51.750;5.888;2023-04-24T13:05:28;4.38;;;1.77;;
32319;SDS011;19080;51.750;5.888;2023-04-24T13:07:54;6.53;;;1.40;;
32319;SDS011;19080;51.750;5.888;2023-04-24T13:10:21;7.95;;;1.60;;
32319;SDS011;19080;51.750;5.888;2023-04-24T13:12:48;3.17;;;1.20;;
32319;SDS011;19080;51.750;5.888;2023-04-24T13:15:15;2.05;;;0.80;;
32319;SDS011;19080;51.750;5.888;2023-04-24T13:17:42;2.90;;;1.10;;
32319;SDS011;19080;51.750;5.888;2023-04-24T13:20:09;5.65;;;1.20;;
32319;SDS011;19080;51.750;5.888;2023-04-24T13:22:36;4.45;;;1.42;;
32319;SDS011;19080;51.750;5.888;2023-04-24T13:25:03;7.32;;;2.05;;
32319;SDS011;19080;51.750;5.888;2023-04-24T13:27:32;4.80;;;1.50;;
32319;SDS011;19080;51.750;5.888;2023-04-24T13:29:59;6.57;;;1.60;;
32319;SDS011;19080;51.750;5.888;2023-04-24T13:32:26;2.90;;;1.33;;
32319;SDS011;19080;51.750;5.888;2023-04-24T13:34:56;7.07;;;1.50;;
32319;SDS011;19080;51.750;5.888;2023-04-24T13:37:23;5.85;;;1.40;;
32319;SDS011;19080;51.750;5.888;2023-04-24T13:39:49;4.13;;;1.00;;
32319;SDS011;19080;51.750;5.888;2023-04-24T13:42:17;5.57;;;1.40;;
32319;SDS011;19080;51.750;5.888;2023-04-24T13:44:45;4.40;;;1.40;;
32319;SDS011;19080;51.750;5.888;2023-04-24T13:47:11;5.63;;;1.48;;
32319;SDS011;19080;51.750;5.888;2023-04-24T13:49:39;4.65;;;1.50;;
32319;SDS011;19080;51.750;5.888;2023-04-24T13:52:07;3.45;;;1.30;;
32319;SDS011;19080;51.750;5.888;2023-04-24T13:54:33;3.95;;;1.20;;
32319;SDS011;19080;51.750;5.888;2023-04-24T13:57:01;9.13;;;1.92;;
32319;SDS011;19080;51.750;5.888;2023-04-24T13:59:29;5.65;;;1.42;;
32319;SDS011;19080;51.750;5.888;2023-04-24T14:01:55;4.82;;;1.70;;
32319;SDS011;19080;51.750;5.888;2023-04-24T14:04:22;5.25;;;2.25;;
32319;SDS011;19080;51.750;5.888;2023-04-24T14:06:49;8.70;;;1.83;;
32319;SDS011;19080;51.750;5.888;2023-04-24T14:09:16;9.00;;;1.92;;
32319;SDS011;19080;51.750;5.888;2023-04-24T14:11:43;5.30;;;1.80;;
32319;SDS011;19080;51.750;5.888;2023-04-24T14:14:10;5.18;;;1.45;;
32319;SDS011;19080;51.750;5.888;2023-04-24T14:16:36;5.47;;;2.60;;
32319;SDS011;19080;51.750;5.888;2023-04-24T14:19:03;7.75;;;2.10;;
32319;SDS011;19080;51.750;5.888;2023-04-24T14:21:32;3.88;;;1.60;;
32319;SDS011;19080;51.750;5.888;2023-04-24T14:23:58;3.95;;;1.45;;
32319;SDS011;19080;51.750;5.888;2023-04-24T14:26:26;4.63;;;1.98;;
32319;SDS011;19080;51.750;5.888;2023-04-24T14:28:53;5.82;;;1.52;;
32319;SDS011;19080;51.750;5.888;2023-04-24T14:31:39;6.80;;;1.58;;
32319;SDS011;19080;51.750;5.888;2023-04-24T14:34:06;5.13;;;1.70;;
32319;SDS011;19080;51.750;5.888;2023-04-24T14:36:32;6.00;;;2.13;;
32319;SDS011;19080;51.750;5.888;2023-04-24T14:38:59;7.50;;;2.20;;
32319;SDS011;19080;51.750;5.888;2023-04-24T14:41:26;7.00;;;2.38;;
32319;SDS011;19080;51.750;5.888;2023-04-24T14:43:52;10.52;;;3.90;;
32319;SDS011;19080;51.750;5.888;2023-04-24T14:46:19;11.93;;;6.10;;
32319;SDS011;19080;51.750;5.888;2023-04-24T14:48:46;8.25;;;3.30;;
32319;SDS011;19080;51.750;5.888;2023-04-24T14:51:14;6.22;;;2.60;;
32319;SDS011;19080;51.750;5.888;2023-04-24T14:53:40;4.63;;;1.80;;
32319;SDS011;19080;51.750;5.888;2023-04-24T14:56:07;7.80;;;1.80;;
32319;SDS011;19080;51.750;5.888;2023-04-24T14:58:34;7.57;;;2.25;;